Navigator Eclipse — D5KU4 — position and weather

sailwx.info

Track history (hours):
 
Tides and Currents Weather Stations Pressure Air Temp Water Temp Dewpoint Dewpoint Depression Visibility Wind Speed Wind Dir Waves Ship Positions

Navigator Eclipse

Last reported at 2017-Oct-22 16:11 UTC. Time now 2017-Oct-23 08:20 UTC.
Position N 36°04' E 022°06'.

Length 180 m; draft 8.3 m.

Type: Tanker. MMSI: 636017410.

Date/timePositionNaut miles runAvg speedWind from/ knotsBaromVisibWave heightAir tempDewpointWater temp
2017-Oct-22 16:11N 36°04' E 022°06'414.2
2017-Oct-22 15:54N 36°04' E 022°11'5913.6
2017-Oct-22 11:35N 36°14' E 023°23'114.5
2017-Oct-22 11:31N 36°15' E 023°24'8714.9
2017-Oct-22 05:40N 37°34' E 024°10'214.8
2017-Oct-22 05:30N 37°36' E 024°10'914.0
2017-Oct-22 04:52N 37°44' E 024°16'814.5
2017-Oct-22 04:20N 37°49' E 024°24'4214.8
2017-Oct-22 01:32N 38°19' E 024°59'015.0
2017-Oct-22 01:30N 38°20' E 024°60'814.9
2017-Oct-22 00:59N 38°25' E 025°06'815.1
2017-Oct-22 00:29N 38°31' E 025°13'57 1.6
2017-Oct-20 13:43N 37°42' E 025°49'316.0
2017-Oct-20 13:30N 37°38' E 025°50'816.2
2017-Oct-20 13:01N 37°30' E 025°53'21414.9
2017-Oct-19 22:36N 34°39' E 028°32'114.9
2017-Oct-19 22:30N 34°38' E 028°33'3714.7
2017-Oct-19 19:59N 34°07' E 028°57'1613.6
2017-Oct-19 18:51N 33°54' E 029°08'11713.9
2017-Oct-19 10:25N 32°14' E 030°21'914.3
2017-Oct-19 09:48N 32°07' E 030°27'513.9
2017-Oct-19 09:28N 32°02' E 030°29'  
Track history (hours):
 
Tides and Currents Weather Stations Pressure Air Temp Water Temp Dewpoint Dewpoint Depression Visibility Wind Speed Wind Dir Waves Ship Positions

Navigator Eclipse

Last reported at 2017-Oct-22 16:11 UTC. Time now 2017-Oct-23 08:20 UTC.
Position N 36°04' E 022°06'.

Length 180 m; draft 8.3 m.

Type: Tanker. MMSI: 636017410.

Date/timePositionNaut miles runAvg speedWind from/ knotsBaromVisibWave heightAir tempDewpointWater temp
2017-Oct-22 16:11N 36°04' E 022°06'414.2
2017-Oct-22 15:54N 36°04' E 022°11'5913.6
2017-Oct-22 11:35N 36°14' E 023°23'114.5
2017-Oct-22 11:31N 36°15' E 023°24'8714.9
2017-Oct-22 05:40N 37°34' E 024°10'214.8
2017-Oct-22 05:30N 37°36' E 024°10'914.0
2017-Oct-22 04:52N 37°44' E 024°16'814.5
2017-Oct-22 04:20N 37°49' E 024°24'4214.8
2017-Oct-22 01:32N 38°19' E 024°59'015.0
2017-Oct-22 01:30N 38°20' E 024°60'814.9
2017-Oct-22 00:59N 38°25' E 025°06'815.1
2017-Oct-22 00:29N 38°31' E 025°13'57 1.6
2017-Oct-20 13:43N 37°42' E 025°49'316.0
2017-Oct-20 13:30N 37°38' E 025°50'816.2
2017-Oct-20 13:01N 37°30' E 025°53'21414.9
2017-Oct-19 22:36N 34°39' E 028°32'114.9
2017-Oct-19 22:30N 34°38' E 028°33'3714.7
2017-Oct-19 19:59N 34°07' E 028°57'1613.6
2017-Oct-19 18:51N 33°54' E 029°08'11713.9
2017-Oct-19 10:25N 32°14' E 030°21'914.3
2017-Oct-19 09:48N 32°07' E 030°27'513.9
2017-Oct-19 09:28N 32°02' E 030°29'  

Dump ship's entire track history